createdAt,value
2023-05-03T00:02:27.139Z,99423.69
2023-05-03T00:04:54.969Z,99420.25
2023-05-03T00:07:22.911Z,99416.72
2023-05-03T00:09:50.540Z,99418.56
2023-05-03T00:12:18.229Z,99425.50
2023-05-03T00:14:47.085Z,99416.81
2023-05-03T00:17:14.721Z,99422.88
2023-05-03T00:19:42.556Z,99430.81
2023-05-03T00:22:10.023Z,99428.22
2023-05-03T00:24:37.809Z,99421.22
2023-05-03T00:27:05.536Z,99419.41
2023-05-03T00:29:32.915Z,99416.78
2023-05-03T00:32:00.483Z,99417.66
2023-05-03T00:34:28.216Z,99417.72
2023-05-03T00:36:55.619Z,99421.22
2023-05-03T00:39:23.059Z,99415.03
2023-05-03T00:41:50.717Z,99426.41
2023-05-03T00:44:18.319Z,99423.78
2023-05-03T00:46:45.819Z,99420.34
2023-05-03T00:49:13.577Z,99420.22
2023-05-03T00:51:42.083Z,99432.44
2023-05-03T00:54:10.119Z,99433.28
2023-05-03T00:56:51.070Z,99434.25
2023-05-03T00:59:19.479Z,99436.87
2023-05-03T01:01:51.524Z,99439.47
2023-05-03T01:04:20.362Z,99438.53
2023-05-03T01:06:56.137Z,99448.16
2023-05-03T01:09:42.077Z,99436.78
2023-05-03T01:12:12.930Z,99449.06
2023-05-03T01:14:46.179Z,99442.88
2023-05-03T01:17:15.425Z,99448.97
2023-05-03T01:19:45.049Z,99460.37
2023-05-03T01:22:28.001Z,99449.91
2023-05-03T01:25:07.993Z,99449.00
2023-05-03T01:27:36.392Z,99449.81
2023-05-03T01:30:09.167Z,99446.22
2023-05-03T01:33:11.566Z,99442.75
2023-05-03T01:35:50.859Z,99443.56
2023-05-03T01:38:19.165Z,99445.25
2023-05-03T01:40:53.934Z,99443.50
2023-05-03T01:43:23.329Z,99440.09
2023-05-03T01:45:51.048Z,99437.34
2023-05-03T01:48:19.427Z,99438.13
2023-05-03T01:50:46.991Z,99438.91
2023-05-03T01:53:14.835Z,99431.09
2023-05-03T01:55:43.380Z,99431.84
2023-05-03T01:58:12.616Z,99431.03
2023-05-03T02:00:40.278Z,99430.88
2023-05-03T02:03:08.052Z,99431.69
2023-05-03T02:05:35.510Z,99430.97
2023-05-03T02:08:03.488Z,99422.22
2023-05-03T02:10:31.118Z,99425.50
2023-05-03T02:12:58.795Z,99420.09
2023-05-03T02:15:26.322Z,99412.41
2023-05-03T02:17:54.292Z,99421.19
2023-05-03T02:20:22.062Z,99411.25
2023-05-03T02:22:49.485Z,99413.16
2023-05-03T02:25:17.260Z,99416.69
2023-05-03T02:27:45.584Z,99411.44
2023-05-03T02:30:13.509Z,99410.25
2023-05-03T02:32:43.880Z,99405.00
2023-05-03T02:35:11.705Z,99410.28
2023-05-03T02:37:39.081Z,99398.13
2023-05-03T02:40:09.589Z,99400.72
2023-05-03T02:42:37.123Z,99402.53
2023-05-03T02:45:05.703Z,99401.41
2023-05-03T02:47:33.514Z,99396.28
2023-05-03T02:50:01.336Z,99390.28
2023-05-03T02:52:31.283Z,99393.66
2023-05-03T02:54:59.031Z,99387.56
2023-05-03T02:57:26.480Z,99388.31
2023-05-03T02:59:54.590Z,99392.91
2023-05-03T03:02:22.843Z,99392.63
2023-05-03T03:04:50.372Z,99388.50
2023-05-03T03:07:17.964Z,99392.94
2023-05-03T03:09:45.764Z,99388.31
2023-05-03T03:12:13.246Z,99388.63
2023-05-03T03:14:41.669Z,99392.75
2023-05-03T03:17:10.436Z,99386.44
2023-05-03T03:19:37.806Z,99394.44
2023-05-03T03:22:05.187Z,99383.19
2023-05-03T03:24:33.468Z,99388.50
2023-05-03T03:27:01.237Z,99395.31
2023-05-03T03:29:31.813Z,99392.53
2023-05-03T03:32:01.212Z,99396.34
2023-05-03T03:34:28.800Z,99394.47
2023-05-03T03:36:57.763Z,99395.38
2023-05-03T03:39:26.137Z,99394.31
2023-05-03T03:41:53.524Z,99393.66
2023-05-03T03:44:22.942Z,99390.25
2023-05-03T03:46:51.047Z,99397.47
2023-05-03T03:49:18.799Z,99398.63
2023-05-03T03:51:46.178Z,99402.81
2023-05-03T03:54:14.425Z,99402.62
2023-05-03T03:56:43.060Z,99407.06
2023-05-03T03:59:10.579Z,99414.50
2023-05-03T04:01:38.395Z,99418.00
2023-05-03T04:04:06.508Z,99425.66
2023-05-03T04:06:34.491Z,99423.69
2023-05-03T04:09:03.556Z,99423.63
2023-05-03T04:11:31.730Z,99422.72
2023-05-03T04:13:59.724Z,99424.41
2023-05-03T04:16:27.211Z,99429.41
2023-05-03T04:18:57.085Z,99433.81
2023-05-03T04:21:24.583Z,99434.09
2023-05-03T04:23:52.872Z,99437.44
2023-05-03T04:26:31.306Z,99440.34
2023-05-03T04:29:00.331Z,99445.59
2023-05-03T04:31:28.391Z,99449.94
2023-05-03T04:33:58.043Z,99452.59
2023-05-03T04:36:26.679Z,99458.88
2023-05-03T04:38:54.863Z,99454.59
2023-05-03T04:41:24.409Z,99457.19
2023-05-03T04:43:52.223Z,99467.69
2023-05-03T04:46:20.481Z,99464.22
2023-05-03T04:48:48.089Z,99465.09
2023-05-03T04:51:15.584Z,99470.25
2023-05-03T04:53:43.755Z,99468.50
2023-05-03T04:56:11.795Z,99472.81
2023-05-03T04:58:39.592Z,99476.25
2023-05-03T05:01:07.921Z,99483.31
2023-05-03T05:03:35.583Z,99490.56
2023-05-03T05:06:03.311Z,99487.09
2023-05-03T05:08:31.605Z,99485.31
2023-05-03T05:10:59.023Z,99493.09
2023-05-03T05:13:26.709Z,99490.47
2023-05-03T05:15:54.636Z,99489.53
2023-05-03T05:18:22.527Z,99491.41
2023-05-03T05:20:50.416Z,99491.25
2023-05-03T05:23:19.433Z,99487.75
2023-05-03T05:25:47.179Z,99491.34
2023-05-03T05:28:15.950Z,99490.59
2023-05-03T05:30:44.930Z,99488.97
2023-05-03T05:33:12.598Z,99498.50
2023-05-03T05:35:40.324Z,99501.00
2023-05-03T05:38:08.543Z,99501.06
2023-05-03T05:40:36.501Z,99499.25
2023-05-03T05:43:03.923Z,99496.75
2023-05-03T05:45:34.465Z,99503.50
2023-05-03T05:48:02.208Z,99504.66
2023-05-03T05:50:31.474Z,99506.22
2023-05-03T05:52:59.678Z,99513.13
2023-05-03T05:55:27.879Z,99516.69
2023-05-03T05:57:55.917Z,99511.47
2023-05-03T06:00:26.360Z,99515.81
2023-05-03T06:02:54.033Z,99516.78
2023-05-03T06:05:22.189Z,99522.09
2023-05-03T06:07:49.922Z,99523.78
2023-05-03T06:10:18.162Z,99527.38
2023-05-03T06:12:46.083Z,99531.66
2023-05-03T06:15:14.193Z,99542.72
2023-05-03T06:17:42.269Z,99548.91
2023-05-03T06:20:11.988Z,99540.97
2023-05-03T06:22:40.625Z,99544.44
2023-05-03T06:25:09.732Z,99532.09
2023-05-03T06:27:38.440Z,99537.19
2023-05-03T06:30:06.971Z,99543.97
2023-05-03T06:32:34.720Z,99554.81
2023-05-03T06:35:02.402Z,99553.06
2023-05-03T06:37:30.355Z,99558.94
2023-05-03T06:39:58.026Z,99566.63
2023-05-03T06:42:25.509Z,99563.28
2023-05-03T06:45:02.864Z,99572.03
2023-05-03T06:47:30.778Z,99572.84
2023-05-03T06:49:58.279Z,99566.31
2023-05-03T06:52:26.377Z,99564.41
2023-05-03T06:54:54.473Z,99563.47
2023-05-03T06:57:22.820Z,99570.44
2023-05-03T06:59:50.325Z,99569.72
2023-05-03T07:02:18.784Z,99570.56
2023-05-03T07:04:46.189Z,99566.69
2023-05-03T07:07:13.737Z,99567.50
2023-05-03T07:09:43.497Z,99572.81
2023-05-03T07:12:11.313Z,99580.47
2023-05-03T07:14:40.243Z,99567.44
2023-05-03T07:17:08.511Z,99561.94
2023-05-03T07:19:37.279Z,99569.75
2023-05-03T07:22:04.759Z,99563.66
2023-05-03T07:24:32.436Z,99561.81
2023-05-03T07:26:59.824Z,99570.06
2023-05-03T07:29:27.682Z,99565.25
2023-05-03T07:31:55.493Z,99564.38
2023-05-03T07:34:22.858Z,99560.63
2023-05-03T07:36:50.257Z,99558.41
2023-05-03T07:39:18.742Z,99561.16
2023-05-03T07:41:46.929Z,99567.56
2023-05-03T07:44:14.323Z,99563.62
2023-05-03T07:46:41.994Z,99556.72
2023-05-03T07:49:09.388Z,99557.91
2023-05-03T07:51:38.294Z,99561.31
2023-05-03T07:54:06.344Z,99555.97
2023-05-03T07:56:33.767Z,99559.13
2023-05-03T07:59:09.508Z,99558.31
2023-05-03T08:01:38.432Z,99558.41
2023-05-03T08:04:06.375Z,99562.88
2023-05-03T08:06:35.845Z,99566.03
2023-05-03T08:09:04.681Z,99574.63
2023-05-03T08:11:32.693Z,99575.19
2023-05-03T08:14:00.295Z,99573.44
2023-05-03T08:16:27.770Z,99578.44
2023-05-03T08:18:55.493Z,99579.97
2023-05-03T08:21:24.869Z,99576.88
2023-05-03T08:23:52.341Z,99572.72
2023-05-03T08:26:22.112Z,99576.50
2023-05-03T08:28:49.591Z,99567.66
2023-05-03T08:31:18.022Z,99575.16
2023-05-03T08:33:45.733Z,99582.47
2023-05-03T08:36:13.130Z,99577.88
2023-05-03T08:38:41.841Z,99578.31
2023-05-03T08:41:31.051Z,99571.69
2023-05-03T08:43:59.766Z,99572.72
2023-05-03T08:46:30.782Z,99579.13
2023-05-03T08:48:59.052Z,99576.97
2023-05-03T08:51:28.211Z,99579.53
2023-05-03T08:53:55.718Z,99582.37
2023-05-03T08:56:30.135Z,99581.47
2023-05-03T08:59:04.837Z,99583.25
2023-05-03T09:01:32.242Z,99586.38
2023-05-03T09:04:00.077Z,99594.94
2023-05-03T09:06:27.724Z,99582.56
2023-05-03T09:08:55.681Z,99582.09
2023-05-03T09:11:30.085Z,99579.34
2023-05-03T09:14:14.611Z,99586.25
2023-05-03T09:16:47.437Z,99583.00
2023-05-03T09:19:16.151Z,99584.31
2023-05-03T09:21:45.447Z,99589.59
2023-05-03T09:24:14.384Z,99588.06
2023-05-03T09:26:42.348Z,99588.97
2023-05-03T09:29:10.202Z,99585.69
2023-05-03T09:31:38.285Z,99588.31
2023-05-03T09:34:22.185Z,99579.00
2023-05-03T09:36:49.915Z,99585.31
2023-05-03T09:39:18.297Z,99581.81
2023-05-03T09:41:46.194Z,99584.97
2023-05-03T09:44:13.901Z,99588.72
2023-05-03T09:47:04.787Z,99581.50
2023-05-03T09:49:38.914Z,99579.94
2023-05-03T09:52:07.848Z,99572.72
2023-05-03T09:54:35.710Z,99578.34
2023-05-03T09:57:07.463Z,99579.09
2023-05-03T09:59:37.846Z,99584.25
2023-05-03T10:02:07.491Z,99581.87
2023-05-03T10:04:56.801Z,99577.88
2023-05-03T10:07:26.183Z,99577.69
2023-05-03T10:09:56.825Z,99582.94
2023-05-03T10:12:25.325Z,99579.00
2023-05-03T10:14:53.864Z,99576.66
2023-05-03T10:17:43.648Z,99578.00
2023-05-03T10:20:26.750Z,99576.34
2023-05-03T10:23:03.232Z,99580.38
2023-05-03T10:25:31.917Z,99574.53
2023-05-03T10:28:03.620Z,99583.44
2023-05-03T10:30:39.601Z,99572.41
2023-05-03T10:33:10.178Z,99573.28
2023-05-03T10:35:42.505Z,99567.59
2023-05-03T10:38:16.952Z,99564.91
2023-05-03T10:40:44.687Z,99574.97
2023-05-03T10:43:30.626Z,99565.31
2023-05-03T10:45:58.892Z,99564.19
2023-05-03T10:48:26.776Z,99552.66
2023-05-03T10:50:55.027Z,99556.88
2023-05-03T10:53:32.588Z,99555.41
2023-05-03T10:56:08.304Z,99560.28
2023-05-03T10:58:47.417Z,99556.09
2023-05-03T11:01:19.295Z,99556.09
2023-05-03T11:04:07.860Z,99559.19
2023-05-03T11:06:37.415Z,99550.34
2023-05-03T11:09:09.468Z,99559.00
2023-05-03T11:11:39.812Z,99561.47
2023-05-03T11:14:08.872Z,99558.28
2023-05-03T11:16:36.963Z,99552.88
2023-05-03T11:19:04.630Z,99560.91
2023-05-03T11:21:32.815Z,99561.34
2023-05-03T11:24:00.798Z,99559.41
2023-05-03T11:26:28.185Z,99564.25
2023-05-03T11:28:55.904Z,99561.13
2023-05-03T11:31:23.575Z,99556.69
2023-05-03T11:33:51.367Z,99556.94
2023-05-03T11:36:19.106Z,99559.47
2023-05-03T11:38:46.890Z,99545.84
2023-05-03T11:41:16.926Z,99556.88
2023-05-03T11:43:54.915Z,99552.69
2023-05-03T11:46:26.972Z,99560.56
2023-05-03T11:48:55.497Z,99563.34
2023-05-03T11:51:26.208Z,99555.22
2023-05-03T11:53:53.696Z,99564.41
2023-05-03T11:56:22.907Z,99565.22
2023-05-03T11:58:58.345Z,99560.56
2023-05-03T12:01:29.753Z,99559.47
2023-05-03T12:03:59.652Z,99562.16
2023-05-03T12:06:29.308Z,99562.00
2023-05-03T12:08:58.222Z,99563.75
2023-05-03T12:11:28.549Z,99561.94
2023-05-03T12:14:03.454Z,99564.56
2023-05-03T12:16:47.423Z,99567.13
2023-05-03T12:19:33.286Z,99556.72
2023-05-03T12:22:18.016Z,99550.50
2023-05-03T12:24:53.400Z,99549.88
2023-05-03T12:27:23.408Z,99558.63
2023-05-03T12:29:51.877Z,99547.19
2023-05-03T12:32:21.558Z,99552.75
2023-05-03T12:34:52.222Z,99549.09
2023-05-03T12:37:22.190Z,99547.16
2023-05-03T12:40:00.499Z,99544.41
2023-05-03T12:42:37.630Z,99551.63
2023-05-03T12:45:06.071Z,99548.16
2023-05-03T12:47:36.352Z,99543.63
2023-05-03T12:50:06.345Z,99543.84
2023-05-03T12:52:37.828Z,99531.59
2023-05-03T12:55:11.217Z,99530.59
2023-05-03T12:57:39.486Z,99531.09
2023-05-03T13:00:14.743Z,99530.34
2023-05-03T13:05:24.398Z,99535.03
2023-05-03T13:10:32.755Z,99528.97
2023-05-03T13:13:00.820Z,99522.19
2023-05-03T13:15:28.871Z,99524.00
2023-05-03T13:17:57.169Z,99520.19
2023-05-03T13:20:24.539Z,99519.44
2023-05-03T13:22:51.950Z,99516.41
2023-05-03T13:25:19.611Z,99515.81
2023-05-03T13:27:47.263Z,99512.50
2023-05-03T13:30:14.909Z,99518.47
2023-05-03T13:32:42.640Z,99515.00
2023-05-03T13:35:10.314Z,99515.31
2023-05-03T13:37:38.697Z,99515.22
2023-05-03T13:40:07.885Z,99519.69
2023-05-03T13:42:35.495Z,99512.56
2023-05-03T13:45:04.031Z,99511.22
2023-05-03T13:47:47.301Z,99510.84
2023-05-03T13:50:19.922Z,99508.47
2023-05-03T13:52:47.566Z,99511.25
2023-05-03T13:55:14.938Z,99501.44
2023-05-03T13:57:42.331Z,99508.53
2023-05-03T14:00:10.521Z,99508.91
2023-05-03T14:02:38.240Z,99502.62
2023-05-03T14:05:06.859Z,99500.97
2023-05-03T14:07:34.332Z,99501.47
2023-05-03T14:10:02.994Z,99498.25
2023-05-03T14:12:30.914Z,99489.94
2023-05-03T14:15:03.451Z,99505.75
2023-05-03T14:17:32.137Z,99505.44
2023-05-03T14:19:59.782Z,99491.72
2023-05-03T14:22:27.523Z,99492.69
2023-05-03T14:24:55.196Z,99498.41
2023-05-03T14:27:22.644Z,99493.72
2023-05-03T14:29:50.899Z,99497.59
2023-05-03T14:32:20.192Z,99501.72
2023-05-03T14:34:47.611Z,99493.09
2023-05-03T14:37:15.088Z,99497.22
2023-05-03T14:39:42.762Z,99497.19
2023-05-03T14:42:10.736Z,99495.19
2023-05-03T14:44:38.158Z,99485.78
2023-05-03T14:47:07.322Z,99494.09
2023-05-03T14:49:40.498Z,99505.72
2023-05-03T14:52:08.955Z,99498.28
2023-05-03T14:54:37.650Z,99495.81
2023-05-03T14:57:05.197Z,99499.94
2023-05-03T14:59:33.558Z,99496.09
2023-05-03T15:02:01.647Z,99492.47
2023-05-03T15:04:29.584Z,99497.22
2023-05-03T15:07:02.961Z,99498.94
2023-05-03T15:09:33.694Z,99503.47
2023-05-03T15:12:05.094Z,99506.44
2023-05-03T15:14:32.428Z,99493.75
2023-05-03T15:16:59.924Z,99499.72
2023-05-03T15:19:28.307Z,99505.13
2023-05-03T15:21:56.900Z,99496.84
2023-05-03T15:24:24.287Z,99497.03
2023-05-03T15:26:52.007Z,99501.69
2023-05-03T15:29:19.800Z,99490.78
2023-05-03T15:31:47.207Z,99505.94
2023-05-03T15:34:15.496Z,99493.94
2023-05-03T15:36:42.906Z,99499.50
2023-05-03T15:39:10.364Z,99502.72
2023-05-03T15:41:38.228Z,99493.06
2023-05-03T15:44:07.304Z,99499.97
2023-05-03T15:46:34.776Z,99499.47
2023-05-03T15:49:02.848Z,99515.16
2023-05-03T15:51:31.595Z,99509.59
2023-05-03T15:53:59.321Z,99507.94
2023-05-03T15:56:27.932Z,99508.94
2023-05-03T15:58:56.737Z,99511.69
2023-05-03T16:01:24.910Z,99505.81
2023-05-03T16:03:52.695Z,99513.41
2023-05-03T16:06:20.072Z,99509.62
2023-05-03T16:08:47.444Z,99513.37
2023-05-03T16:11:15.216Z,99514.41
2023-05-03T16:14:03.421Z,99511.47
2023-05-03T16:16:31.200Z,99519.09
2023-05-03T16:18:59.660Z,99518.69
2023-05-03T16:21:27.053Z,99514.91
2023-05-03T16:23:54.725Z,99512.06
2023-05-03T16:26:22.150Z,99511.69
2023-05-03T16:28:50.188Z,99517.91
2023-05-03T16:31:18.209Z,99514.94
2023-05-03T16:33:45.697Z,99517.44
2023-05-03T16:36:13.250Z,99523.69
2023-05-03T16:38:40.900Z,99521.63
2023-05-03T16:41:08.595Z,99528.28
2023-05-03T16:43:36.030Z,99512.87
2023-05-03T16:46:03.785Z,99516.56
2023-05-03T16:48:31.926Z,99519.44
2023-05-03T16:50:59.681Z,99515.75
2023-05-03T16:53:27.394Z,99504.31
2023-05-03T16:55:54.968Z,99510.78
2023-05-03T16:58:22.402Z,99511.94
2023-05-03T17:00:50.178Z,99511.44
2023-05-03T17:03:17.781Z,99515.91
2023-05-03T17:05:45.633Z,99523.19
2023-05-03T17:08:14.423Z,99522.25
2023-05-03T17:10:42.477Z,99514.56
2023-05-03T17:13:10.117Z,99525.16
2023-05-03T17:15:38.187Z,99518.03
2023-05-03T17:18:05.798Z,99522.50
2023-05-03T17:20:34.668Z,99527.75
2023-05-03T17:23:02.278Z,99521.78
2023-05-03T17:25:29.651Z,99530.50
2023-05-03T17:27:57.144Z,99534.78
2023-05-03T17:30:25.057Z,99532.25
2023-05-03T17:32:52.535Z,99534.84
2023-05-03T17:35:20.173Z,99530.25
2023-05-03T17:37:47.787Z,99534.72
2023-05-03T17:40:15.290Z,99541.66
2023-05-03T17:42:42.741Z,99542.69
2023-05-03T17:45:11.149Z,99536.53
2023-05-03T17:47:38.633Z,99540.91
2023-05-03T17:50:06.901Z,99540.12
2023-05-03T17:52:34.968Z,99545.31
2023-05-03T17:55:02.716Z,99544.22
2023-05-03T17:57:30.369Z,99545.34
2023-05-03T17:59:58.011Z,99550.53
2023-05-03T18:02:26.009Z,99558.44
2023-05-03T18:04:54.507Z,99550.66
2023-05-03T18:07:22.409Z,99557.63
2023-05-03T18:09:52.631Z,99560.16
2023-05-03T18:12:20.565Z,99565.44
2023-05-03T18:14:48.054Z,99564.56
2023-05-03T18:17:15.798Z,99570.84
2023-05-03T18:19:44.940Z,99567.37
2023-05-03T18:22:13.287Z,99574.28
2023-05-03T18:24:40.668Z,99565.50
2023-05-03T18:27:09.393Z,99576.97
2023-05-03T18:29:37.105Z,99576.00
2023-05-03T18:32:08.401Z,99573.34
2023-05-03T18:34:39.205Z,99582.25
2023-05-03T18:37:08.709Z,99583.06
2023-05-03T18:39:36.862Z,99579.66
2023-05-03T18:42:05.354Z,99581.37
2023-05-03T18:44:33.085Z,99589.22
2023-05-03T18:47:01.802Z,99588.34
2023-05-03T18:49:29.933Z,99592.75
2023-05-03T18:51:58.578Z,99590.97
2023-05-03T18:54:27.576Z,99590.13
2023-05-03T18:56:56.053Z,99589.25
2023-05-03T18:59:24.536Z,99595.34
2023-05-03T19:01:52.898Z,99594.47
2023-05-03T19:04:22.962Z,99598.81
2023-05-03T19:06:50.924Z,99598.81
2023-05-03T19:09:19.607Z,99599.72
2023-05-03T19:11:49.965Z,99604.06
2023-05-03T19:14:19.724Z,99603.16
2023-05-03T19:16:48.935Z,99611.00
2023-05-03T19:19:17.080Z,99610.16
2023-05-03T19:21:45.068Z,99616.25
2023-05-03T19:24:15.253Z,99618.81
2023-05-03T19:26:44.798Z,99617.09
2023-05-03T19:29:12.913Z,99627.50
2023-05-03T19:31:42.656Z,99624.97
2023-05-03T19:34:11.610Z,99621.47
2023-05-03T19:36:39.992Z,99624.09
2023-05-03T19:39:12.622Z,99624.97
2023-05-03T19:41:41.015Z,99618.81
2023-05-03T19:44:08.799Z,99627.59
2023-05-03T19:46:36.843Z,99630.22
2023-05-03T19:49:05.286Z,99633.63
2023-05-03T19:51:33.765Z,99640.59
2023-05-03T19:54:03.205Z,99636.31
2023-05-03T19:56:31.160Z,99634.56
2023-05-03T19:58:58.680Z,99638.91
2023-05-03T20:01:26.380Z,99640.66
2023-05-03T20:03:55.133Z,99654.59
2023-05-03T20:06:22.746Z,99651.03
2023-05-03T20:08:51.245Z,99642.37
2023-05-03T20:11:22.710Z,99651.09
2023-05-03T20:13:51.531Z,99661.53
2023-05-03T20:16:21.872Z,99669.34
2023-05-03T20:18:50.083Z,99662.38
2023-05-03T20:21:17.588Z,99671.09
2023-05-03T20:23:45.234Z,99665.94
2023-05-03T20:26:12.646Z,99677.22
2023-05-03T20:28:40.034Z,99678.06
2023-05-03T20:31:08.160Z,99672.84
2023-05-03T20:33:35.876Z,99674.53
2023-05-03T20:36:03.648Z,99677.19
2023-05-03T20:38:31.717Z,99678.06
2023-05-03T20:40:59.114Z,99678.84
2023-05-03T20:43:26.801Z,99684.03
2023-05-03T20:45:54.640Z,99686.59
2023-05-03T20:48:22.110Z,99675.22
2023-05-03T20:50:50.088Z,99682.09
2023-05-03T20:53:17.863Z,99683.97
2023-05-03T20:55:45.232Z,99680.37
2023-05-03T20:58:12.749Z,99683.91
2023-05-03T21:00:40.410Z,99684.75
2023-05-03T21:03:07.992Z,99674.25
2023-05-03T21:05:35.461Z,99678.56
2023-05-03T21:08:03.173Z,99677.81
2023-05-03T21:10:30.654Z,99679.56
2023-05-03T21:12:58.095Z,99678.63
2023-05-03T21:15:25.836Z,99677.81
2023-05-03T21:17:53.874Z,99677.72
2023-05-03T21:20:21.398Z,99677.94
2023-05-03T21:22:49.043Z,99669.09
2023-05-03T21:25:16.398Z,99671.84
2023-05-03T21:27:43.778Z,99668.34
2023-05-03T21:30:13.659Z,99672.75
2023-05-03T21:32:41.085Z,99677.16
2023-05-03T21:35:09.297Z,99685.88
2023-05-03T21:37:37.014Z,99680.56
2023-05-03T21:40:04.805Z,99678.78
2023-05-03T21:42:32.233Z,99685.00
2023-05-03T21:44:59.838Z,99684.97
2023-05-03T21:47:27.929Z,99685.88
2023-05-03T21:49:55.566Z,99680.56
2023-05-03T21:52:23.861Z,99683.97
2023-05-03T21:54:52.275Z,99681.37
2023-05-03T21:57:19.691Z,99679.56
2023-05-03T21:59:47.429Z,99683.22
2023-05-03T22:02:14.866Z,99683.09
2023-05-03T22:04:43.515Z,99684.94
2023-05-03T22:07:10.836Z,99683.16
2023-05-03T22:09:38.212Z,99685.84
2023-05-03T22:12:22.731Z,99686.69
2023-05-03T22:14:52.312Z,99685.84
2023-05-03T22:17:20.066Z,99685.88
2023-05-03T22:19:47.502Z,99682.34
2023-05-03T22:22:14.889Z,99685.94
2023-05-03T22:24:42.542Z,99680.72
2023-05-03T22:27:09.933Z,99681.59
2023-05-03T22:29:37.468Z,99675.53
2023-05-03T22:32:06.755Z,99675.47
2023-05-03T22:34:34.432Z,99675.47
2023-05-03T22:37:02.009Z,99676.34
2023-05-03T22:39:29.734Z,99678.94
2023-05-03T22:41:57.174Z,99667.69
2023-05-03T22:44:24.544Z,99665.84
2023-05-03T22:46:52.185Z,99667.63
2023-05-03T22:49:20.121Z,99658.09
2023-05-03T22:51:47.490Z,99654.59
2023-05-03T22:54:15.245Z,99653.72
2023-05-03T22:56:42.737Z,99650.22
2023-05-03T22:59:11.454Z,99660.63
2023-05-03T23:01:39.158Z,99658.91
2023-05-03T23:04:06.545Z,99655.44
2023-05-03T23:06:33.941Z,99653.69
2023-05-03T23:09:04.428Z,99658.91
2023-05-03T23:11:31.793Z,99650.16
2023-05-03T23:13:59.117Z,99653.69
2023-05-03T23:16:26.805Z,99644.94
2023-05-03T23:18:55.720Z,99647.59
2023-05-03T23:21:23.540Z,99644.97
2023-05-03T23:23:51.205Z,99645.84
2023-05-03T23:26:18.632Z,99641.47
2023-05-03T23:28:46.288Z,99642.37
2023-05-03T23:31:14.519Z,99637.06
2023-05-03T23:33:42.421Z,99641.19
2023-05-03T23:36:09.857Z,99636.88
2023-05-03T23:38:37.504Z,99634.44
2023-05-03T23:41:04.899Z,99634.47
2023-05-03T23:43:32.663Z,99630.03
2023-05-03T23:46:00.268Z,99629.28
2023-05-03T23:48:27.678Z,99621.41
2023-05-03T23:50:55.067Z,99623.81
2023-05-03T23:53:22.738Z,99619.66
2023-05-03T23:55:50.318Z,99610.91
2023-05-03T23:58:18.014Z,99612.72
